createdAt,value
2023-04-30T00:02:56.190Z,1.75
2023-04-30T00:05:58.103Z,1.67
2023-04-30T00:09:00.024Z,1.85
2023-04-30T00:12:01.929Z,1.58
2023-04-30T00:15:04.566Z,1.90
2023-04-30T00:18:07.263Z,1.80
2023-04-30T00:21:09.423Z,1.60
2023-04-30T00:24:11.337Z,1.60
2023-04-30T00:27:13.237Z,1.63
2023-04-30T00:30:15.437Z,1.70
2023-04-30T00:33:17.300Z,1.45
2023-04-30T00:36:19.464Z,1.50
2023-04-30T00:39:21.378Z,1.70
2023-04-30T00:42:24.231Z,1.92
2023-04-30T00:45:26.731Z,2.10
2023-04-30T00:48:29.013Z,2.00
2023-04-30T00:51:35.368Z,1.83
2023-04-30T00:54:37.447Z,1.80
2023-04-30T00:57:41.070Z,2.13
2023-04-30T01:00:47.296Z,1.63
2023-04-30T01:03:49.463Z,1.90
2023-04-30T01:06:52.155Z,1.60
2023-04-30T01:09:54.884Z,1.90
2023-04-30T01:16:10.509Z,1.90
2023-04-30T01:19:28.485Z,2.10
2023-04-30T01:22:55.285Z,1.98
2023-04-30T01:26:28.839Z,1.77
2023-04-30T01:29:32.811Z,1.73
2023-04-30T01:32:34.778Z,1.63
2023-04-30T01:35:54.803Z,1.77
2023-04-30T01:39:11.572Z,1.90
2023-04-30T01:42:19.668Z,1.98
2023-04-30T01:45:27.252Z,1.98
2023-04-30T01:48:41.660Z,2.05
2023-04-30T01:51:48.384Z,2.03
2023-04-30T01:54:59.374Z,2.05
2023-04-30T01:58:03.541Z,1.90
2023-04-30T02:01:05.593Z,1.73
2023-04-30T02:04:07.585Z,1.93
2023-04-30T02:07:09.547Z,1.90
2023-04-30T02:10:12.527Z,1.70
2023-04-30T02:16:16.466Z,2.13
2023-04-30T02:19:18.403Z,2.20
2023-04-30T02:22:20.442Z,2.38
2023-04-30T02:25:22.442Z,1.90
2023-04-30T02:28:24.405Z,2.25
2023-04-30T02:31:26.345Z,2.10
2023-04-30T02:34:28.309Z,2.22
2023-04-30T02:37:30.230Z,1.90
2023-04-30T02:40:32.131Z,2.05
2023-04-30T02:43:34.063Z,2.00
2023-04-30T02:46:36.015Z,1.85
2023-04-30T02:49:38.002Z,2.10
2023-04-30T02:52:39.941Z,1.77
2023-04-30T02:55:41.930Z,1.73
2023-04-30T02:58:44.408Z,1.83
2023-04-30T03:01:46.631Z,1.90
2023-04-30T03:04:48.518Z,1.63
2023-04-30T03:07:50.500Z,2.15
2023-04-30T03:10:52.474Z,1.60
2023-04-30T03:13:55.501Z,1.88
2023-04-30T03:16:57.403Z,1.80
2023-04-30T03:19:59.307Z,2.25
2023-04-30T03:23:01.155Z,1.50
2023-04-30T03:26:02.973Z,1.90
2023-04-30T03:29:04.904Z,1.85
2023-04-30T03:32:06.714Z,1.80
2023-04-30T03:35:08.899Z,1.70
2023-04-30T03:38:10.944Z,1.50
2023-04-30T03:41:12.906Z,1.63
2023-04-30T03:44:16.198Z,1.88
2023-04-30T03:47:18.400Z,1.75
2023-04-30T03:50:20.378Z,1.83
2023-04-30T03:53:22.328Z,1.70
2023-04-30T03:56:25.909Z,1.80
2023-04-30T03:59:28.303Z,1.63
2023-04-30T04:02:31.985Z,1.50
2023-04-30T04:05:33.973Z,1.48
2023-04-30T04:08:36.786Z,1.67
2023-04-30T04:11:38.722Z,1.50
2023-04-30T04:14:40.595Z,1.50
2023-04-30T04:17:42.611Z,1.25
2023-04-30T04:20:45.086Z,1.30
2023-04-30T04:23:46.970Z,1.30
2023-04-30T04:26:48.957Z,1.35
2023-04-30T04:29:51.299Z,1.35
2023-04-30T04:32:54.172Z,1.55
2023-04-30T04:39:04.019Z,1.40
2023-04-30T04:42:05.973Z,1.63
2023-04-30T04:45:08.550Z,1.50
2023-04-30T04:48:10.492Z,1.40
2023-04-30T04:51:12.778Z,1.50
2023-04-30T04:54:14.811Z,1.45
2023-04-30T04:57:16.760Z,1.30
2023-04-30T05:00:19.214Z,1.13
2023-04-30T05:03:21.469Z,1.00
2023-04-30T05:06:25.087Z,1.30
2023-04-30T05:09:27.861Z,1.27
2023-04-30T05:12:29.711Z,1.10
2023-04-30T05:15:31.677Z,1.30
2023-04-30T05:18:33.580Z,1.40
2023-04-30T05:21:36.506Z,1.30
2023-04-30T05:27:40.090Z,1.00
2023-04-30T05:30:41.915Z,0.90
2023-04-30T05:33:43.959Z,0.98
2023-04-30T05:36:45.915Z,0.90
2023-04-30T05:39:49.095Z,0.93
2023-04-30T05:42:51.059Z,1.00
2023-04-30T05:45:52.913Z,1.13
2023-04-30T05:48:54.833Z,1.00
2023-04-30T05:51:56.774Z,0.88
2023-04-30T05:54:58.744Z,1.00
2023-04-30T05:58:00.815Z,1.10
2023-04-30T06:01:02.851Z,1.00
2023-04-30T06:04:05.252Z,0.90
2023-04-30T06:07:07.218Z,1.00
2023-04-30T06:10:09.867Z,0.90
2023-04-30T06:13:11.754Z,0.80
2023-04-30T06:16:13.648Z,0.90
2023-04-30T06:19:16.213Z,0.90
2023-04-30T06:22:18.166Z,0.70
2023-04-30T06:25:21.064Z,0.80
2023-04-30T06:28:22.949Z,0.85
2023-04-30T06:31:25.110Z,0.90
2023-04-30T06:34:27.124Z,0.90
2023-04-30T06:37:29.052Z,0.90
2023-04-30T06:40:31.000Z,0.90
2023-04-30T06:43:32.825Z,0.85
2023-04-30T06:46:34.973Z,0.90
2023-04-30T06:49:36.976Z,0.95
2023-04-30T06:52:39.329Z,0.82
2023-04-30T06:55:41.975Z,0.80
2023-04-30T06:58:43.905Z,0.90
2023-04-30T07:01:45.752Z,0.98
2023-04-30T07:04:47.664Z,0.80
2023-04-30T07:07:49.573Z,0.70
2023-04-30T07:10:51.486Z,0.88
2023-04-30T07:13:53.806Z,0.88
2023-04-30T07:16:56.416Z,0.73
2023-04-30T07:19:58.470Z,1.00
2023-04-30T07:23:00.306Z,0.90
2023-04-30T07:26:02.202Z,0.80
2023-04-30T07:29:04.863Z,1.08
2023-04-30T07:32:06.786Z,0.93
2023-04-30T07:35:09.108Z,1.13
2023-04-30T07:38:11.177Z,1.00
2023-04-30T07:41:13.269Z,1.07
2023-04-30T07:44:15.330Z,1.00
2023-04-30T07:47:17.715Z,1.03
2023-04-30T07:50:20.049Z,1.20
2023-04-30T07:53:21.895Z,1.15
2023-04-30T07:56:23.706Z,0.95
2023-04-30T07:59:25.660Z,1.10
2023-04-30T08:02:27.841Z,1.40
2023-04-30T08:05:29.971Z,1.00
2023-04-30T08:08:31.840Z,1.23
2023-04-30T08:11:33.766Z,1.13
2023-04-30T08:14:35.831Z,1.10
2023-04-30T08:17:37.848Z,1.43
2023-04-30T08:20:39.876Z,1.13
2023-04-30T08:23:41.914Z,1.17
2023-04-30T08:26:43.805Z,1.90
2023-04-30T08:29:45.827Z,1.60
2023-04-30T08:32:49.052Z,1.50
2023-04-30T08:35:51.166Z,1.27
2023-04-30T08:38:53.155Z,1.53
2023-04-30T08:42:02.354Z,1.33
2023-04-30T08:45:05.209Z,1.58
2023-04-30T08:48:11.604Z,1.50
2023-04-30T08:51:13.532Z,1.60
2023-04-30T08:54:17.777Z,1.60
2023-04-30T08:57:19.659Z,1.67
2023-04-30T09:00:21.790Z,1.73
2023-04-30T09:03:23.807Z,1.58
2023-04-30T09:06:27.394Z,1.92
2023-04-30T09:09:31.093Z,1.60
2023-04-30T09:12:33.050Z,1.67
2023-04-30T09:15:36.907Z,1.60
2023-04-30T09:18:42.121Z,1.60
2023-04-30T09:21:44.050Z,1.50
2023-04-30T09:24:48.307Z,1.70
2023-04-30T09:28:07.561Z,2.03
2023-04-30T09:31:21.104Z,2.30
2023-04-30T09:34:35.467Z,2.55
2023-04-30T09:37:38.506Z,2.00
2023-04-30T09:40:42.633Z,1.90
2023-04-30T09:43:47.307Z,1.80
2023-04-30T09:46:51.124Z,1.95
2023-04-30T09:49:53.917Z,2.10
2023-04-30T09:53:07.067Z,2.20
2023-04-30T09:56:11.834Z,2.25
2023-04-30T09:59:15.041Z,2.20
2023-04-30T10:02:17.445Z,2.33
2023-04-30T10:05:19.717Z,2.10
2023-04-30T10:08:27.070Z,1.83
2023-04-30T10:11:35.881Z,2.00
2023-04-30T10:14:38.022Z,2.15
2023-04-30T10:17:41.692Z,1.98
2023-04-30T10:20:48.937Z,2.65
2023-04-30T10:23:51.980Z,2.38
2023-04-30T10:26:55.115Z,2.53
2023-04-30T10:29:58.111Z,2.20
2023-04-30T10:33:16.877Z,2.25
2023-04-30T10:36:33.891Z,2.78
2023-04-30T10:39:37.845Z,2.50
2023-04-30T10:42:45.968Z,2.58
2023-04-30T10:45:48.759Z,2.30
2023-04-30T10:48:54.955Z,2.50
2023-04-30T10:52:00.772Z,2.53
2023-04-30T10:55:07.555Z,2.50
2023-04-30T10:58:27.418Z,2.67
2023-04-30T11:01:29.888Z,2.60
2023-04-30T11:04:31.803Z,3.17
2023-04-30T11:07:34.584Z,2.70
2023-04-30T11:10:36.571Z,2.75
2023-04-30T11:13:45.337Z,2.70
2023-04-30T11:16:51.323Z,2.78
2023-04-30T11:19:54.348Z,2.70
2023-04-30T11:23:15.707Z,2.80
2023-04-30T11:26:24.820Z,3.03
2023-04-30T11:29:27.099Z,3.15
2023-04-30T11:32:37.412Z,2.78
2023-04-30T11:35:39.759Z,3.53
2023-04-30T11:38:41.869Z,3.85
2023-04-30T11:41:43.765Z,2.92
2023-04-30T11:44:46.284Z,3.15
2023-04-30T11:47:50.575Z,7.25
2023-04-30T11:50:52.547Z,6.38
2023-04-30T11:53:54.642Z,3.40
2023-04-30T11:57:02.344Z,3.10
2023-04-30T12:00:21.312Z,2.70
2023-04-30T12:03:23.320Z,3.13
2023-04-30T12:06:27.821Z,2.93
2023-04-30T12:09:30.217Z,3.00
2023-04-30T12:12:32.621Z,2.90
2023-04-30T12:15:34.494Z,2.80
2023-04-30T12:18:36.438Z,5.97
2023-04-30T12:21:40.287Z,4.47
2023-04-30T12:24:42.221Z,3.75
2023-04-30T12:27:53.550Z,3.13
2023-04-30T12:30:55.810Z,2.10
2023-04-30T12:33:57.744Z,2.60
2023-04-30T12:37:00.179Z,3.00
2023-04-30T12:40:02.678Z,3.40
2023-04-30T12:43:07.152Z,2.80
2023-04-30T12:46:09.228Z,3.30
2023-04-30T12:49:11.476Z,2.97
2023-04-30T12:52:14.218Z,3.10
2023-04-30T12:55:19.672Z,3.03
2023-04-30T12:58:22.421Z,3.78
2023-04-30T13:01:25.479Z,4.30
2023-04-30T13:04:27.895Z,4.60
2023-04-30T13:07:38.711Z,4.18
2023-04-30T13:10:40.790Z,3.72
2023-04-30T13:13:42.691Z,4.40
2023-04-30T13:16:44.628Z,3.60
2023-04-30T13:19:46.743Z,4.23
2023-04-30T13:22:48.860Z,5.38
2023-04-30T13:25:50.694Z,4.17
2023-04-30T13:28:52.651Z,3.10
2023-04-30T13:31:54.591Z,2.90
2023-04-30T13:34:56.862Z,3.37
2023-04-30T13:38:02.450Z,3.03
2023-04-30T13:41:04.503Z,4.70
2023-04-30T13:44:06.554Z,3.50
2023-04-30T13:47:10.341Z,4.32
2023-04-30T13:50:12.405Z,3.78
2023-04-30T13:53:14.486Z,3.70
2023-04-30T13:56:16.429Z,2.80
2023-04-30T13:59:19.257Z,3.13
2023-04-30T14:05:23.212Z,3.55
2023-04-30T14:08:25.189Z,4.00
2023-04-30T14:11:27.582Z,3.00
2023-04-30T14:14:29.762Z,3.13
2023-04-30T14:17:32.171Z,2.67
2023-04-30T14:20:34.059Z,2.60
2023-04-30T14:23:36.382Z,2.95
2023-04-30T14:26:39.182Z,2.30
2023-04-30T14:32:43.033Z,3.60
2023-04-30T14:35:45.662Z,3.00
2023-04-30T14:38:47.748Z,2.40
2023-04-30T14:41:51.140Z,2.73
2023-04-30T14:44:53.641Z,2.60
2023-04-30T14:47:55.588Z,2.70
2023-04-30T14:50:57.500Z,2.57
2023-04-30T14:53:59.498Z,2.40
2023-04-30T14:57:03.463Z,2.03
2023-04-30T15:00:06.901Z,2.15
2023-04-30T15:03:09.017Z,2.40
2023-04-30T15:06:11.296Z,2.03
2023-04-30T15:09:13.917Z,2.70
2023-04-30T15:12:15.794Z,2.83
2023-04-30T15:15:18.857Z,3.10
2023-04-30T15:18:21.013Z,3.78
2023-04-30T15:21:22.986Z,4.63
2023-04-30T15:24:25.126Z,3.28
2023-04-30T15:27:31.799Z,3.33
2023-04-30T15:30:34.328Z,3.83
2023-04-30T15:33:42.136Z,3.20
2023-04-30T15:36:44.160Z,2.63
2023-04-30T15:39:47.799Z,2.00
2023-04-30T15:42:51.024Z,2.15
2023-04-30T15:45:53.168Z,1.60
2023-04-30T15:48:55.126Z,2.10
2023-04-30T15:51:57.067Z,2.17
2023-04-30T15:55:00.563Z,1.70
2023-04-30T15:58:02.448Z,1.70
2023-04-30T16:01:04.583Z,2.00
2023-04-30T16:04:07.029Z,2.63
2023-04-30T16:07:09.315Z,2.70
2023-04-30T16:10:11.838Z,2.80
2023-04-30T16:13:13.964Z,2.60
2023-04-30T16:16:16.781Z,2.92
2023-04-30T16:19:18.814Z,3.05
2023-04-30T16:22:21.720Z,3.20
2023-04-30T16:28:28.392Z,3.20
2023-04-30T16:31:30.861Z,2.55
2023-04-30T16:34:32.750Z,2.83
2023-04-30T16:37:35.090Z,3.35
2023-04-30T16:40:37.400Z,4.30
2023-04-30T16:43:39.408Z,4.10
2023-04-30T16:46:41.965Z,3.67
2023-04-30T16:49:44.688Z,2.78
2023-04-30T16:52:47.270Z,3.03
2023-04-30T16:55:51.801Z,2.55
2023-04-30T16:58:54.887Z,2.30
2023-04-30T17:01:58.712Z,2.88
2023-04-30T17:05:00.855Z,2.80
2023-04-30T17:08:03.291Z,2.70
2023-04-30T17:11:06.429Z,3.40
2023-04-30T17:14:08.749Z,3.05
2023-04-30T17:17:10.765Z,3.40
2023-04-30T17:20:12.678Z,3.83
2023-04-30T17:23:14.601Z,3.07
2023-04-30T17:26:18.372Z,2.90
2023-04-30T17:29:21.141Z,2.45
2023-04-30T17:32:23.383Z,2.50
2023-04-30T17:35:25.673Z,2.35
2023-04-30T17:38:28.354Z,2.30
2023-04-30T17:41:30.484Z,2.28
2023-04-30T17:44:33.732Z,2.63
2023-04-30T17:47:35.820Z,2.53
2023-04-30T17:50:37.838Z,2.40
2023-04-30T17:53:40.643Z,2.40
2023-04-30T17:56:42.764Z,2.28
2023-04-30T17:59:44.735Z,2.10
2023-04-30T18:02:46.972Z,1.90
2023-04-30T18:05:48.901Z,2.30
2023-04-30T18:08:51.025Z,1.80
2023-04-30T18:11:54.033Z,2.13
2023-04-30T18:14:55.983Z,1.77
2023-04-30T18:17:59.456Z,2.22
2023-04-30T18:21:01.474Z,2.00
2023-04-30T18:24:03.515Z,2.20
2023-04-30T18:27:05.294Z,2.63
2023-04-30T18:30:09.536Z,2.45
2023-04-30T18:36:13.515Z,2.30
2023-04-30T18:39:15.559Z,2.53
2023-04-30T18:42:18.478Z,2.40
2023-04-30T18:48:25.520Z,2.10
2023-04-30T18:51:28.563Z,2.13
2023-04-30T18:54:30.515Z,2.30
2023-04-30T18:57:32.466Z,2.13
2023-04-30T19:00:34.456Z,2.20
2023-04-30T19:03:36.494Z,2.27
2023-04-30T19:06:38.604Z,2.80
2023-04-30T19:09:40.665Z,2.60
2023-04-30T19:12:44.032Z,2.40
2023-04-30T19:15:48.737Z,2.10
2023-04-30T19:18:51.656Z,2.40
2023-04-30T19:24:55.776Z,2.25
2023-04-30T19:27:57.713Z,2.10
2023-04-30T19:30:59.735Z,1.90
2023-04-30T19:34:01.740Z,2.00
2023-04-30T19:37:03.806Z,1.77
2023-04-30T19:40:12.956Z,2.50
2023-04-30T19:43:14.929Z,2.20
2023-04-30T19:46:17.561Z,1.80
2023-04-30T19:49:19.700Z,1.80
2023-04-30T19:52:22.558Z,1.97
2023-04-30T19:55:25.716Z,2.05
2023-04-30T19:58:27.949Z,1.67
2023-04-30T20:01:29.954Z,1.80
2023-04-30T20:04:31.849Z,1.53
2023-04-30T20:07:33.828Z,1.77
2023-04-30T20:10:37.346Z,2.03
2023-04-30T20:13:39.225Z,1.98
2023-04-30T20:16:41.531Z,1.50
2023-04-30T20:19:43.620Z,1.92
2023-04-30T20:22:47.689Z,1.85
2023-04-30T20:25:50.313Z,1.85
2023-04-30T20:28:52.296Z,1.58
2023-04-30T20:31:54.474Z,1.80
2023-04-30T20:34:56.891Z,1.45
2023-04-30T20:37:58.939Z,1.45
2023-04-30T20:41:00.827Z,1.30
2023-04-30T20:44:02.649Z,1.60
2023-04-30T20:47:05.541Z,1.40
2023-04-30T20:53:12.604Z,1.50
2023-04-30T20:56:14.598Z,1.63
2023-04-30T20:59:16.551Z,1.60
2023-04-30T21:02:18.728Z,1.48
2023-04-30T21:05:20.616Z,1.40
2023-04-30T21:08:22.530Z,1.50
2023-04-30T21:11:28.946Z,1.40
2023-04-30T21:14:31.687Z,1.38
2023-04-30T21:17:33.693Z,1.50
2023-04-30T21:20:35.619Z,1.40
2023-04-30T21:23:37.575Z,1.60
2023-04-30T21:26:39.370Z,1.50
2023-04-30T21:29:44.464Z,1.30
2023-04-30T21:32:47.205Z,1.90
2023-04-30T21:35:49.268Z,1.50
2023-04-30T21:38:51.382Z,1.90
2023-04-30T21:41:53.688Z,2.25
2023-04-30T21:44:55.550Z,1.70
2023-04-30T21:47:57.587Z,1.50
2023-04-30T21:50:59.671Z,1.50
2023-04-30T21:54:01.533Z,1.40
2023-04-30T21:57:03.844Z,1.45
2023-04-30T22:00:06.773Z,1.30
2023-04-30T22:03:10.351Z,1.30
2023-04-30T22:06:12.264Z,1.40
2023-04-30T22:09:14.555Z,1.35
2023-04-30T22:12:16.485Z,1.38
2023-04-30T22:15:18.464Z,1.35
2023-04-30T22:18:21.349Z,1.67
2023-04-30T22:21:23.236Z,1.38
2023-04-30T22:24:25.534Z,1.35
2023-04-30T22:27:27.572Z,1.60
2023-04-30T22:30:29.513Z,1.13
2023-04-30T22:33:36.284Z,1.30
2023-04-30T22:36:38.077Z,1.50
2023-04-30T22:39:40.005Z,1.20
2023-04-30T22:42:42.763Z,1.48
2023-04-30T22:45:44.754Z,1.55
2023-04-30T22:48:46.784Z,1.50
2023-04-30T22:51:49.014Z,1.50
2023-04-30T22:54:50.971Z,1.33
2023-04-30T22:57:53.123Z,1.20
2023-04-30T23:00:55.096Z,1.48
2023-04-30T23:03:57.192Z,1.50
2023-04-30T23:06:59.115Z,1.63
2023-04-30T23:10:01.023Z,1.77
2023-04-30T23:13:02.965Z,1.60
2023-04-30T23:16:05.846Z,1.55
2023-04-30T23:22:10.431Z,1.63
2023-04-30T23:25:12.713Z,1.48
2023-04-30T23:28:14.552Z,1.40
2023-04-30T23:31:18.032Z,1.60
2023-04-30T23:34:19.904Z,1.50
2023-04-30T23:37:21.794Z,1.52
2023-04-30T23:40:23.731Z,1.40
2023-04-30T23:43:25.679Z,1.88
2023-04-30T23:46:27.661Z,1.35
2023-04-30T23:49:29.680Z,1.90
2023-04-30T23:52:32.019Z,1.40
2023-04-30T23:55:35.071Z,1.60
2023-04-30T23:58:36.945Z,1.27
